createdAt,value
2018-11-22T00:01:12.327Z,75.10
2018-11-22T00:03:45.095Z,75.00
2018-11-22T00:06:17.715Z,75.10
2018-11-22T00:08:47.197Z,75.10
2018-11-22T00:11:17.324Z,75.10
2018-11-22T00:13:46.892Z,75.00
2018-11-22T00:16:16.828Z,75.00
2018-11-22T00:18:46.616Z,75.10
2018-11-22T00:21:16.346Z,75.10
2018-11-22T00:23:46.418Z,75.10
2018-11-22T00:26:20.275Z,75.20
2018-11-22T00:28:50.281Z,75.10
2018-11-22T00:31:22.964Z,75.10
2018-11-22T00:33:53.066Z,75.10
2018-11-22T00:36:22.950Z,75.10
2018-11-22T00:38:53.028Z,75.10
2018-11-22T00:41:23.433Z,75.10
2018-11-22T00:43:53.420Z,75.10
2018-11-22T00:46:23.762Z,75.00
2018-11-22T00:48:58.698Z,75.00
2018-11-22T00:51:28.809Z,75.00
2018-11-22T00:53:58.134Z,75.00
2018-11-22T00:56:29.907Z,75.10
2018-11-22T00:59:00.502Z,75.00
2018-11-22T01:01:30.185Z,75.00
2018-11-22T01:04:01.158Z,75.10
2018-11-22T01:06:30.278Z,75.10
2018-11-22T01:09:00.964Z,75.00
2018-11-22T01:11:30.699Z,75.00
2018-11-22T01:14:03.818Z,75.00
2018-11-22T01:16:34.960Z,75.00
2018-11-22T01:19:05.277Z,75.00
2018-11-22T01:21:35.628Z,75.00
2018-11-22T01:24:08.193Z,75.10
2018-11-22T01:26:39.061Z,75.00
2018-11-22T01:29:08.597Z,75.10
2018-11-22T01:31:40.888Z,75.00
2018-11-22T01:34:10.743Z,75.00
2018-11-22T01:36:41.055Z,75.00
2018-11-22T01:39:12.527Z,75.00
2018-11-22T01:41:46.063Z,75.10
2018-11-22T01:44:19.221Z,75.10
2018-11-22T01:46:48.869Z,75.20
2018-11-22T01:49:18.534Z,75.20
2018-11-22T01:51:47.985Z,75.10
2018-11-22T01:54:19.298Z,75.10
2018-11-22T01:56:49.886Z,75.80
2018-11-22T01:59:23.310Z,75.20
2018-11-22T02:01:53.066Z,75.20
2018-11-22T02:04:25.085Z,75.00
2018-11-22T02:06:57.200Z,75.00
2018-11-22T02:09:26.934Z,75.10
2018-11-22T02:11:57.183Z,75.20
2018-11-22T02:14:26.857Z,75.20
2018-11-22T02:16:58.102Z,75.30
2018-11-22T02:19:28.570Z,75.30
2018-11-22T02:22:00.085Z,75.30
2018-11-22T02:24:29.869Z,75.60
2018-11-22T02:26:59.656Z,75.40
2018-11-22T02:29:30.521Z,75.40
2018-11-22T02:31:58.953Z,75.40
2018-11-22T02:34:30.517Z,75.40
2018-11-22T02:37:04.679Z,75.40
2018-11-22T02:39:35.253Z,75.40
2018-11-22T02:42:04.998Z,75.40
2018-11-22T12:18:03.480Z,76.20
2018-11-22T12:20:31.921Z,76.20
2018-11-22T12:23:00.474Z,76.30
2018-11-22T12:25:29.419Z,76.30
2018-11-22T12:27:59.984Z,76.30
2018-11-22T12:30:29.923Z,76.40
2018-11-22T12:33:03.685Z,76.40
2018-11-22T12:35:37.611Z,76.30
2018-11-22T12:38:11.509Z,76.30
2018-11-22T12:40:39.989Z,76.30
2018-11-22T12:43:08.450Z,76.40
2018-11-22T12:45:37.039Z,76.50
2018-11-22T12:48:05.516Z,76.50
2018-11-22T12:50:34.052Z,76.50
2018-11-22T12:53:02.511Z,76.40
2018-11-22T12:55:30.994Z,76.40
2018-11-22T12:57:59.496Z,76.40
2018-11-22T13:00:27.988Z,76.30
2018-11-22T13:02:56.478Z,76.40
2018-11-22T13:05:25.000Z,76.40
2018-11-22T13:07:53.457Z,76.40
2018-11-22T13:10:21.994Z,77.20
2018-11-22T13:12:50.618Z,76.40
2018-11-22T13:15:20.422Z,76.40
2018-11-22T13:17:48.868Z,76.40
2018-11-22T13:20:18.943Z,76.40
2018-11-22T13:22:47.411Z,76.40
2018-11-22T13:25:17.339Z,76.40
2018-11-22T13:27:45.825Z,76.40
2018-11-22T13:30:17.503Z,76.40
2018-11-22T13:32:46.811Z,76.40
2018-11-22T13:35:16.251Z,76.40
2018-11-22T13:37:45.796Z,76.40
2018-11-22T13:40:14.335Z,76.50
2018-11-22T13:42:43.708Z,76.50
2018-11-22T13:45:14.154Z,76.50
2018-11-22T13:47:43.951Z,76.50
2018-11-22T13:50:18.650Z,76.40
2018-11-22T13:52:48.476Z,76.40
2018-11-22T13:55:16.973Z,76.40
2018-11-22T13:57:45.468Z,76.40
2018-11-22T14:00:19.394Z,76.40
2018-11-22T14:02:49.480Z,76.40
2018-11-22T14:05:17.983Z,76.40
2018-11-22T14:07:46.494Z,76.40
2018-11-22T14:10:17.129Z,76.40
2018-11-22T14:12:45.532Z,76.40
2018-11-22T14:15:17.072Z,76.40
2018-11-22T14:17:46.018Z,76.40
2018-11-22T14:20:16.929Z,76.40
2018-11-22T14:22:45.441Z,76.40
2018-11-22T14:25:15.153Z,76.40
2018-11-22T14:27:44.513Z,76.40
2018-11-22T14:30:17.564Z,76.40
2018-11-22T14:32:46.734Z,76.40
2018-11-22T14:35:16.266Z,76.40
2018-11-22T14:37:45.050Z,76.40
2018-11-22T14:40:15.405Z,76.40
2018-11-22T14:42:44.537Z,76.30
2018-11-22T14:45:14.210Z,76.30
2018-11-22T14:47:43.716Z,76.30
2018-11-22T14:50:17.054Z,76.30
2018-11-22T14:52:49.036Z,76.30
2018-11-22T14:55:17.560Z,76.30
2018-11-22T14:57:46.062Z,76.30
2018-11-22T15:00:15.605Z,76.30
2018-11-22T15:02:48.293Z,76.30
2018-11-22T15:05:17.075Z,76.30
2018-11-22T15:07:45.813Z,76.30
2018-11-22T15:10:15.879Z,76.20
2018-11-22T15:12:45.552Z,76.20
2018-11-22T15:15:16.415Z,76.20
2018-11-22T15:17:44.951Z,76.20
2018-11-22T15:20:14.725Z,76.20
2018-11-22T15:22:43.905Z,76.20
2018-11-22T15:25:17.135Z,76.20
2018-11-22T15:27:45.868Z,76.20
2018-11-22T15:30:16.646Z,76.20
2018-11-22T15:32:45.095Z,76.20
2018-11-22T15:35:14.866Z,76.20
2018-11-22T15:37:44.510Z,76.20
2018-11-22T15:40:15.535Z,76.30
2018-11-22T15:42:44.578Z,76.20
2018-11-22T15:45:15.358Z,76.20
2018-11-22T15:47:44.410Z,76.20
2018-11-22T15:50:15.208Z,76.20
2018-11-22T15:52:44.637Z,76.20
2018-11-22T15:55:20.832Z,76.30
2018-11-22T15:57:44.691Z,76.30
2018-11-22T16:00:22.270Z,76.20
2018-11-22T16:02:51.764Z,76.30
2018-11-22T16:05:21.326Z,76.30
2018-11-22T16:07:49.952Z,76.30
2018-11-22T16:10:26.372Z,76.30
2018-11-22T16:12:50.844Z,76.30
2018-11-22T16:15:27.611Z,77.10
2018-11-22T16:17:56.599Z,76.30
2018-11-22T16:20:25.100Z,76.30
2018-11-22T16:22:53.559Z,76.30
2018-11-22T16:25:22.063Z,76.30
2018-11-22T16:27:50.602Z,76.40
2018-11-22T16:30:21.550Z,76.30
2018-11-22T16:32:50.071Z,76.30
2018-11-22T16:35:19.304Z,76.30
2018-11-22T16:37:47.793Z,76.30
2018-11-22T16:40:18.616Z,76.30
2018-11-22T16:42:48.374Z,76.30
2018-11-22T16:45:21.321Z,76.30
2018-11-22T16:47:49.956Z,76.30
2018-11-22T16:50:20.053Z,76.30
2018-11-22T16:52:48.595Z,76.30
2018-11-22T16:55:17.573Z,76.30
2018-11-22T16:57:47.472Z,76.30
2018-11-22T17:00:25.725Z,76.30
2018-11-22T17:02:55.407Z,76.40
2018-11-22T17:05:24.702Z,76.40
2018-11-22T17:07:53.470Z,76.40
2018-11-22T17:10:23.306Z,76.60
2018-11-22T17:12:53.091Z,76.70
2018-11-22T17:15:22.914Z,76.70
2018-11-22T17:17:52.950Z,76.60
2018-11-22T17:20:22.332Z,76.60
2018-11-22T17:22:51.489Z,76.50
2018-11-22T17:25:22.135Z,76.70
2018-11-22T17:27:52.317Z,76.60
2018-11-22T17:30:23.512Z,76.50
2018-11-22T17:32:52.017Z,76.50
2018-11-22T17:35:21.883Z,76.50
2018-11-22T17:37:50.861Z,76.40
2018-11-22T17:40:21.379Z,76.40
2018-11-22T17:42:49.925Z,76.40
2018-11-22T17:45:21.875Z,76.40
2018-11-22T17:47:50.566Z,76.50
2018-11-22T17:50:19.382Z,76.50
2018-11-22T17:52:47.870Z,76.60
2018-11-22T17:55:19.010Z,76.50
2018-11-22T17:57:47.506Z,76.50
2018-11-22T18:00:49.354Z,76.50
2018-11-22T18:03:18.212Z,76.40
2018-11-22T18:05:46.791Z,76.50
2018-11-22T18:08:15.586Z,76.40
2018-11-22T18:10:44.494Z,76.40
2018-11-22T18:13:13.247Z,76.50
2018-11-22T18:15:46.979Z,76.60
2018-11-22T18:18:15.497Z,76.60
2018-11-22T18:20:44.274Z,76.60
2018-11-22T18:23:13.004Z,76.60
2018-11-22T18:25:41.593Z,76.60
2018-11-22T18:28:10.135Z,76.60
2018-11-22T18:30:38.647Z,76.70
2018-11-22T18:33:08.097Z,76.70
2018-11-22T18:35:36.670Z,76.70
2018-11-22T18:38:05.282Z,76.70
2018-11-22T18:40:36.822Z,76.70
2018-11-22T18:43:05.672Z,76.70
2018-11-22T18:45:35.627Z,76.70
2018-11-22T18:48:05.062Z,76.60
2018-11-22T18:50:34.529Z,76.70
2018-11-22T18:53:03.073Z,76.70
2018-11-22T18:55:31.595Z,76.70
2018-11-22T18:58:00.144Z,76.70
2018-11-22T19:00:35.053Z,76.70
2018-11-22T19:03:05.432Z,76.80
2018-11-22T19:05:33.919Z,76.70
2018-11-22T19:08:02.412Z,76.70
2018-11-22T19:10:35.232Z,76.80
2018-11-22T19:13:06.237Z,76.70
2018-11-22T19:15:36.287Z,76.70
2018-11-22T19:18:06.791Z,76.70
2018-11-22T19:20:37.670Z,76.70
2018-11-22T19:23:07.179Z,76.70
2018-11-22T19:25:35.698Z,76.80
2018-11-22T19:28:04.886Z,76.80
2018-11-22T19:30:37.627Z,76.90
2018-11-22T19:33:07.527Z,76.80
2018-11-22T19:35:37.963Z,76.80
2018-11-22T19:38:07.283Z,76.90
2018-11-22T19:40:37.110Z,76.90
2018-11-22T19:43:07.263Z,76.90
2018-11-22T19:45:37.467Z,76.90
2018-11-22T19:48:06.373Z,76.90
2018-11-22T19:50:35.024Z,76.90
2018-11-22T19:53:04.766Z,76.90
2018-11-22T19:55:34.306Z,76.90
2018-11-22T19:58:04.924Z,76.90
2018-11-22T20:00:33.505Z,77.00
2018-11-22T20:03:03.779Z,77.00
2018-11-22T20:05:34.063Z,77.00
2018-11-22T20:08:06.233Z,77.00
2018-11-22T20:10:36.495Z,77.00
2018-11-22T20:13:05.121Z,77.00
2018-11-22T20:15:33.891Z,77.10
2018-11-22T20:18:03.670Z,77.10
2018-11-22T20:20:32.143Z,77.10
2018-11-22T20:23:00.663Z,77.30
2018-11-22T20:25:29.184Z,77.00
2018-11-22T20:27:57.807Z,77.10
2018-11-22T20:30:27.827Z,77.10
2018-11-22T20:32:56.437Z,77.10
2018-11-22T20:35:24.963Z,77.00
2018-11-22T20:37:53.727Z,77.00
2018-11-22T20:40:23.367Z,77.00
2018-11-22T20:42:52.016Z,77.10
2018-11-22T20:45:21.997Z,77.10
2018-11-22T20:47:55.129Z,77.20
2018-11-22T20:50:24.889Z,77.10
2018-11-22T20:52:53.392Z,77.10
2018-11-22T20:55:26.382Z,77.20
2018-11-22T20:57:58.279Z,77.20
2018-11-22T21:00:28.108Z,77.10
2018-11-22T21:02:56.640Z,77.10
2018-11-22T21:05:28.008Z,77.10
2018-11-22T21:07:56.593Z,77.20
2018-11-22T21:10:26.468Z,77.10
2018-11-22T21:12:54.963Z,77.20
2018-11-22T21:15:24.702Z,77.20
2018-11-22T21:17:54.837Z,77.10
2018-11-22T21:20:25.011Z,77.10
2018-11-22T21:22:53.459Z,77.20
2018-11-22T21:25:22.532Z,77.20
2018-11-22T21:27:50.992Z,77.30
2018-11-22T21:30:24.250Z,77.20
2018-11-22T21:32:53.108Z,77.20
2018-11-22T21:35:21.907Z,77.20
2018-11-22T21:37:51.488Z,77.20
2018-11-22T21:40:20.708Z,77.20
2018-11-22T21:42:49.199Z,77.20
2018-11-22T21:45:19.122Z,77.30
2018-11-22T21:47:47.625Z,77.20
2018-11-22T21:50:17.336Z,77.20
2018-11-22T21:52:45.923Z,77.30
2018-11-22T21:55:24.972Z,77.20
2018-11-22T21:57:54.512Z,77.30
2018-11-22T22:00:28.852Z,77.30
2018-11-22T22:02:59.470Z,77.30
2018-11-22T22:05:28.000Z,77.30
2018-11-22T22:07:56.442Z,77.30
2018-11-22T22:10:24.934Z,77.20
2018-11-22T22:12:53.471Z,77.20
2018-11-22T22:15:24.122Z,77.30
2018-11-22T22:17:52.629Z,77.20
2018-11-22T22:20:23.574Z,77.30
2018-11-22T22:22:52.097Z,77.30
2018-11-22T22:25:21.574Z,77.30
2018-11-22T22:27:50.610Z,77.30
2018-11-22T22:30:20.496Z,77.40
2018-11-22T22:32:50.039Z,77.40
2018-11-22T22:35:18.560Z,77.30
2018-11-22T22:37:47.102Z,77.30
2018-11-22T22:40:16.986Z,77.30
2018-11-22T22:42:46.570Z,77.30
2018-11-22T22:45:15.997Z,77.40
2018-11-22T22:47:45.438Z,77.40
2018-11-22T22:50:15.747Z,77.30
2018-11-22T22:52:45.089Z,77.40
2018-11-22T22:55:13.935Z,77.40
2018-11-22T22:57:42.865Z,77.40
2018-11-22T23:00:18.404Z,77.40
2018-11-22T23:02:47.002Z,77.50
2018-11-22T23:05:15.437Z,77.50
2018-11-22T23:07:43.912Z,77.50
2018-11-22T23:10:12.374Z,77.50
2018-11-22T23:12:40.872Z,77.50
2018-11-22T23:15:11.690Z,77.40
2018-11-22T23:17:40.715Z,77.40
2018-11-22T23:20:15.219Z,77.40
2018-11-22T23:22:44.331Z,77.50
2018-11-22T23:25:13.675Z,77.50
2018-11-22T23:27:42.279Z,77.60
2018-11-22T23:30:16.444Z,77.60
2018-11-22T23:32:47.660Z,77.60
2018-11-22T23:35:16.598Z,77.50
2018-11-22T23:37:45.237Z,77.60
2018-11-22T23:40:15.035Z,77.60
2018-11-22T23:42:43.720Z,77.60
2018-11-22T23:45:13.586Z,77.60
2018-11-22T23:47:42.809Z,77.60
2018-11-22T23:50:14.311Z,77.60
2018-11-22T23:52:44.108Z,77.60
2018-11-22T23:55:12.661Z,77.60
2018-11-22T23:57:41.399Z,77.60
